sensor_id;sensor_type;location;lat;lon;timestamp;temperature;humidity
13982;DHT22;7065;50.880;5.502;2023-11-21T00:01:02;7.90;99.90
13982;DHT22;7065;50.880;5.502;2023-11-21T00:03:30;8.00;99.90
13982;DHT22;7065;50.880;5.502;2023-11-21T00:05:55;8.00;99.90
13982;DHT22;7065;50.880;5.502;2023-11-21T00:08:21;8.00;99.90
13982;DHT22;7065;50.880;5.502;2023-11-21T00:10:47;8.00;99.90
13982;DHT22;7065;50.880;5.502;2023-11-21T00:13:13;8.00;99.90
13982;DHT22;7065;50.880;5.502;2023-11-21T00:15:39;8.10;99.90
13982;DHT22;7065;50.880;5.502;2023-11-21T00:18:06;8.00;99.90
13982;DHT22;7065;50.880;5.502;2023-11-21T00:20:32;8.10;99.90
13982;DHT22;7065;50.880;5.502;2023-11-21T00:22:57;8.10;99.90
13982;DHT22;7065;50.880;5.502;2023-11-21T00:25:25;8.10;99.90
13982;DHT22;7065;50.880;5.502;2023-11-21T00:27:50;8.10;99.90
13982;DHT22;7065;50.880;5.502;2023-11-21T00:30:17;8.10;99.90
13982;DHT22;7065;50.880;5.502;2023-11-21T00:32:42;8.10;99.90
13982;DHT22;7065;50.880;5.502;2023-11-21T00:35:08;8.10;99.90
13982;DHT22;7065;50.880;5.502;2023-11-21T00:37:34;8.10;99.90
13982;DHT22;7065;50.880;5.502;2023-11-21T00:40:00;8.10;99.90
13982;DHT22;7065;50.880;5.502;2023-11-21T00:42:28;8.10;99.90
13982;DHT22;7065;50.880;5.502;2023-11-21T00:44:53;8.10;99.90
13982;DHT22;7065;50.880;5.502;2023-11-21T00:47:19;8.10;99.90
13982;DHT22;7065;50.880;5.502;2023-11-21T00:49:45;8.10;99.90
13982;DHT22;7065;50.880;5.502;2023-11-21T00:52:10;8.10;99.90
13982;DHT22;7065;50.880;5.502;2023-11-21T00:54:36;8.10;99.90
13982;DHT22;7065;50.880;5.502;2023-11-21T00:57:02;8.10;99.90
13982;DHT22;7065;50.880;5.502;2023-11-21T00:59:28;8.10;99.90
13982;DHT22;7065;50.880;5.502;2023-11-21T01:01:54;8.10;99.90
13982;DHT22;7065;50.880;5.502;2023-11-21T01:04:20;8.20;99.90
13982;DHT22;7065;50.880;5.502;2023-11-21T01:06:46;8.20;99.90
13982;DHT22;7065;50.880;5.502;2023-11-21T01:09:11;8.20;99.90
13982;DHT22;7065;50.880;5.502;2023-11-21T01:11:38;8.20;99.90
13982;DHT22;7065;50.880;5.502;2023-11-21T01:14:04;8.20;99.90
13982;DHT22;7065;50.880;5.502;2023-11-21T01:16:30;8.20;99.90
13982;DHT22;7065;50.880;5.502;2023-11-21T01:18:58;8.30;99.90
13982;DHT22;7065;50.880;5.502;2023-11-21T01:21:25;8.30;99.90
13982;DHT22;7065;50.880;5.502;2023-11-21T01:23:50;8.30;99.90
13982;DHT22;7065;50.880;5.502;2023-11-21T01:26:16;8.20;99.90
13982;DHT22;7065;50.880;5.502;2023-11-21T01:28:42;8.30;99.90
13982;DHT22;7065;50.880;5.502;2023-11-21T01:31:07;8.20;99.90
13982;DHT22;7065;50.880;5.502;2023-11-21T01:33:33;8.20;99.90
13982;DHT22;7065;50.880;5.502;2023-11-21T01:35:59;8.30;99.90
13982;DHT22;7065;50.880;5.502;2023-11-21T01:38:25;8.30;99.90
13982;DHT22;7065;50.880;5.502;2023-11-21T01:40:51;8.30;99.90
13982;DHT22;7065;50.880;5.502;2023-11-21T01:43:17;8.30;99.90
13982;DHT22;7065;50.880;5.502;2023-11-21T01:45:42;8.30;99.90
13982;DHT22;7065;50.880;5.502;2023-11-21T01:48:08;8.20;99.90
13982;DHT22;7065;50.880;5.502;2023-11-21T01:50:34;8.30;99.90
13982;DHT22;7065;50.880;5.502;2023-11-21T01:53:00;8.30;99.90
13982;DHT22;7065;50.880;5.502;2023-11-21T01:55:27;8.30;99.90
13982;DHT22;7065;50.880;5.502;2023-11-21T01:57:54;8.30;99.90
13982;DHT22;7065;50.880;5.502;2023-11-21T02:00:20;8.30;99.90
13982;DHT22;7065;50.880;5.502;2023-11-21T02:02:47;8.20;99.90
13982;DHT22;7065;50.880;5.502;2023-11-21T02:05:14;8.20;99.90
13982;DHT22;7065;50.880;5.502;2023-11-21T02:07:41;8.30;99.90
13982;DHT22;7065;50.880;5.502;2023-11-21T02:10:08;8.30;99.90
13982;DHT22;7065;50.880;5.502;2023-11-21T02:12:34;8.30;99.90
13982;DHT22;7065;50.880;5.502;2023-11-21T02:15:04;8.30;99.90
13982;DHT22;7065;50.880;5.502;2023-11-21T02:17:36;8.30;99.90
13982;DHT22;7065;50.880;5.502;2023-11-21T02:20:02;8.30;99.90
13982;DHT22;7065;50.880;5.502;2023-11-21T02:22:30;8.30;99.90
13982;DHT22;7065;50.880;5.502;2023-11-21T02:24:56;8.30;99.90
13982;DHT22;7065;50.880;5.502;2023-11-21T02:27:23;8.30;99.90
13982;DHT22;7065;50.880;5.502;2023-11-21T02:29:50;8.40;99.90
13982;DHT22;7065;50.880;5.502;2023-11-21T02:32:15;8.40;99.90
13982;DHT22;7065;50.880;5.502;2023-11-21T02:34:44;8.40;99.90
13982;DHT22;7065;50.880;5.502;2023-11-21T02:37:10;8.30;99.90
13982;DHT22;7065;50.880;5.502;2023-11-21T02:39:35;8.30;99.90
13982;DHT22;7065;50.880;5.502;2023-11-21T02:42:01;8.30;99.90
13982;DHT22;7065;50.880;5.502;2023-11-21T02:44:27;8.30;99.90
13982;DHT22;7065;50.880;5.502;2023-11-21T02:46:52;8.30;99.90
13982;DHT22;7065;50.880;5.502;2023-11-21T02:49:18;8.40;99.90
13982;DHT22;7065;50.880;5.502;2023-11-21T02:51:43;8.30;99.90
13982;DHT22;7065;50.880;5.502;2023-11-21T02:54:09;8.30;99.90
13982;DHT22;7065;50.880;5.502;2023-11-21T02:56:36;8.30;99.90
13982;DHT22;7065;50.880;5.502;2023-11-21T02:59:01;8.40;99.90
13982;DHT22;7065;50.880;5.502;2023-11-21T03:01:28;8.40;99.90
13982;DHT22;7065;50.880;5.502;2023-11-21T03:03:53;8.40;99.90
13982;DHT22;7065;50.880;5.502;2023-11-21T03:06:20;8.40;99.90
13982;DHT22;7065;50.880;5.502;2023-11-21T03:08:47;8.40;99.90
13982;DHT22;7065;50.880;5.502;2023-11-21T03:11:13;8.40;99.90
13982;DHT22;7065;50.880;5.502;2023-11-21T03:13:40;8.40;99.90
13982;DHT22;7065;50.880;5.502;2023-11-21T03:16:10;8.40;99.90
13982;DHT22;7065;50.880;5.502;2023-11-21T03:18:37;8.40;99.90
13982;DHT22;7065;50.880;5.502;2023-11-21T03:21:04;8.40;99.90
13982;DHT22;7065;50.880;5.502;2023-11-21T03:23:30;8.40;99.90
13982;DHT22;7065;50.880;5.502;2023-11-21T03:25:56;8.40;99.90
13982;DHT22;7065;50.880;5.502;2023-11-21T03:28:22;8.40;99.90
13982;DHT22;7065;50.880;5.502;2023-11-21T03:30:49;8.40;99.90
13982;DHT22;7065;50.880;5.502;2023-11-21T03:33:14;8.40;99.90
13982;DHT22;7065;50.880;5.502;2023-11-21T03:35:40;8.40;99.90
13982;DHT22;7065;50.880;5.502;2023-11-21T03:38:07;8.40;99.90
13982;DHT22;7065;50.880;5.502;2023-11-21T03:40:33;8.40;99.90
13982;DHT22;7065;50.880;5.502;2023-11-21T03:42:58;8.40;99.90
13982;DHT22;7065;50.880;5.502;2023-11-21T03:45:24;8.50;99.90
13982;DHT22;7065;50.880;5.502;2023-11-21T03:47:50;8.40;99.90
13982;DHT22;7065;50.880;5.502;2023-11-21T03:50:16;8.50;99.90
13982;DHT22;7065;50.880;5.502;2023-11-21T03:52:42;8.50;99.90
13982;DHT22;7065;50.880;5.502;2023-11-21T03:55:08;8.50;99.90
13982;DHT22;7065;50.880;5.502;2023-11-21T03:57:34;8.50;99.90
13982;DHT22;7065;50.880;5.502;2023-11-21T04:00:00;8.50;99.90
13982;DHT22;7065;50.880;5.502;2023-11-21T04:02:26;8.50;99.90
13982;DHT22;7065;50.880;5.502;2023-11-21T04:04:53;8.50;99.90
13982;DHT22;7065;50.880;5.502;2023-11-21T04:07:19;8.50;99.90
13982;DHT22;7065;50.880;5.502;2023-11-21T04:09:44;8.60;99.90
13982;DHT22;7065;50.880;5.502;2023-11-21T04:12:10;8.60;99.90
13982;DHT22;7065;50.880;5.502;2023-11-21T04:14:36;8.50;99.90
13982;DHT22;7065;50.880;5.502;2023-11-21T04:17:02;8.60;99.90
13982;DHT22;7065;50.880;5.502;2023-11-21T04:19:29;8.60;99.90
13982;DHT22;7065;50.880;5.502;2023-11-21T04:21:55;8.50;99.90
13982;DHT22;7065;50.880;5.502;2023-11-21T04:24:20;8.50;99.90
13982;DHT22;7065;50.880;5.502;2023-11-21T04:26:46;8.50;99.90
13982;DHT22;7065;50.880;5.502;2023-11-21T04:29:12;8.50;99.90
13982;DHT22;7065;50.880;5.502;2023-11-21T04:31:38;8.60;99.90
13982;DHT22;7065;50.880;5.502;2023-11-21T04:34:04;8.50;99.90
13982;DHT22;7065;50.880;5.502;2023-11-21T04:36:30;8.50;99.90
13982;DHT22;7065;50.880;5.502;2023-11-21T04:38:56;8.50;99.90
13982;DHT22;7065;50.880;5.502;2023-11-21T04:41:22;8.50;99.90
13982;DHT22;7065;50.880;5.502;2023-11-21T04:43:48;8.50;99.90
13982;DHT22;7065;50.880;5.502;2023-11-21T04:46:14;8.50;99.90
13982;DHT22;7065;50.880;5.502;2023-11-21T04:48:40;8.50;99.90
13982;DHT22;7065;50.880;5.502;2023-11-21T04:51:06;8.50;99.90
13982;DHT22;7065;50.880;5.502;2023-11-21T04:53:32;8.50;99.90
13982;DHT22;7065;50.880;5.502;2023-11-21T04:55:58;8.50;99.90
13982;DHT22;7065;50.880;5.502;2023-11-21T04:58:24;8.50;99.90
13982;DHT22;7065;50.880;5.502;2023-11-21T05:00:50;8.50;99.90
13982;DHT22;7065;50.880;5.502;2023-11-21T05:03:15;8.50;99.90
13982;DHT22;7065;50.880;5.502;2023-11-21T05:05:41;8.50;99.90
13982;DHT22;7065;50.880;5.502;2023-11-21T05:08:06;8.50;99.90
13982;DHT22;7065;50.880;5.502;2023-11-21T05:10:33;8.50;99.90
13982;DHT22;7065;50.880;5.502;2023-11-21T05:12:59;8.50;99.90
13982;DHT22;7065;50.880;5.502;2023-11-21T05:15:25;8.40;99.90
13982;DHT22;7065;50.880;5.502;2023-11-21T05:17:53;8.40;99.90
13982;DHT22;7065;50.880;5.502;2023-11-21T05:20:20;8.50;99.90
13982;DHT22;7065;50.880;5.502;2023-11-21T05:22:49;8.40;99.90
13982;DHT22;7065;50.880;5.502;2023-11-21T05:25:15;8.40;99.90
13982;DHT22;7065;50.880;5.502;2023-11-21T05:27:44;8.50;99.90
13982;DHT22;7065;50.880;5.502;2023-11-21T05:30:10;8.50;99.90
13982;DHT22;7065;50.880;5.502;2023-11-21T05:32:38;8.50;99.90
13982;DHT22;7065;50.880;5.502;2023-11-21T05:35:04;8.50;99.90
13982;DHT22;7065;50.880;5.502;2023-11-21T05:37:38;8.50;99.90
13982;DHT22;7065;50.880;5.502;2023-11-21T05:40:07;8.50;99.90
13982;DHT22;7065;50.880;5.502;2023-11-21T05:42:34;8.40;99.90
13982;DHT22;7065;50.880;5.502;2023-11-21T05:45:00;8.40;99.90
13982;DHT22;7065;50.880;5.502;2023-11-21T05:47:41;8.40;99.90
13982;DHT22;7065;50.880;5.502;2023-11-21T05:50:09;8.40;99.90
13982;DHT22;7065;50.880;5.502;2023-11-21T05:52:37;8.40;99.90
13982;DHT22;7065;50.880;5.502;2023-11-21T05:55:03;8.30;99.90
13982;DHT22;7065;50.880;5.502;2023-11-21T05:57:36;8.40;99.90
13982;DHT22;7065;50.880;5.502;2023-11-21T06:00:14;8.40;99.90
13982;DHT22;7065;50.880;5.502;2023-11-21T06:02:51;8.40;99.90
13982;DHT22;7065;50.880;5.502;2023-11-21T06:05:22;8.40;99.90
13982;DHT22;7065;50.880;5.502;2023-11-21T06:07:50;8.40;99.90
13982;DHT22;7065;50.880;5.502;2023-11-21T06:10:16;8.40;99.90
13982;DHT22;7065;50.880;5.502;2023-11-21T06:12:43;8.40;99.90
13982;DHT22;7065;50.880;5.502;2023-11-21T06:15:10;8.40;99.90
13982;DHT22;7065;50.880;5.502;2023-11-21T06:17:40;8.40;99.90
13982;DHT22;7065;50.880;5.502;2023-11-21T06:20:07;8.40;99.90
13982;DHT22;7065;50.880;5.502;2023-11-21T06:22:43;8.40;99.90
13982;DHT22;7065;50.880;5.502;2023-11-21T06:25:11;8.40;99.90
13982;DHT22;7065;50.880;5.502;2023-11-21T06:27:42;8.40;99.90
13982;DHT22;7065;50.880;5.502;2023-11-21T06:30:10;8.30;99.90
13982;DHT22;7065;50.880;5.502;2023-11-21T06:32:38;8.30;99.90
13982;DHT22;7065;50.880;5.502;2023-11-21T06:35:05;8.30;99.90
13982;DHT22;7065;50.880;5.502;2023-11-21T06:37:32;8.30;99.90
13982;DHT22;7065;50.880;5.502;2023-11-21T06:39:59;8.30;99.90
13982;DHT22;7065;50.880;5.502;2023-11-21T06:42:25;8.30;99.90
13982;DHT22;7065;50.880;5.502;2023-11-21T06:44:52;8.30;99.90
13982;DHT22;7065;50.880;5.502;2023-11-21T06:47:19;8.30;99.90
13982;DHT22;7065;50.880;5.502;2023-11-21T06:49:51;8.30;99.90
13982;DHT22;7065;50.880;5.502;2023-11-21T06:52:17;8.30;99.90
13982;DHT22;7065;50.880;5.502;2023-11-21T06:54:43;8.30;99.90
13982;DHT22;7065;50.880;5.502;2023-11-21T06:57:09;8.30;99.90
13982;DHT22;7065;50.880;5.502;2023-11-21T06:59:35;8.30;99.90
13982;DHT22;7065;50.880;5.502;2023-11-21T07:02:01;8.30;99.90
13982;DHT22;7065;50.880;5.502;2023-11-21T07:04:27;8.40;99.90
13982;DHT22;7065;50.880;5.502;2023-11-21T07:06:55;8.40;99.90
13982;DHT22;7065;50.880;5.502;2023-11-21T07:09:22;8.40;99.90
13982;DHT22;7065;50.880;5.502;2023-11-21T07:11:53;8.40;99.90
13982;DHT22;7065;50.880;5.502;2023-11-21T07:14:19;8.40;99.90
13982;DHT22;7065;50.880;5.502;2023-11-21T07:16:46;8.40;99.90
13982;DHT22;7065;50.880;5.502;2023-11-21T07:19:12;8.40;99.90
13982;DHT22;7065;50.880;5.502;2023-11-21T07:21:38;8.40;99.90
13982;DHT22;7065;50.880;5.502;2023-11-21T07:24:07;8.40;99.90
13982;DHT22;7065;50.880;5.502;2023-11-21T07:26:34;8.40;99.90
13982;DHT22;7065;50.880;5.502;2023-11-21T07:29:01;8.40;99.90
13982;DHT22;7065;50.880;5.502;2023-11-21T07:31:28;8.50;99.90
13982;DHT22;7065;50.880;5.502;2023-11-21T07:33:54;8.50;99.90
13982;DHT22;7065;50.880;5.502;2023-11-21T07:36:23;8.50;99.90
13982;DHT22;7065;50.880;5.502;2023-11-21T07:38:50;8.50;99.90
13982;DHT22;7065;50.880;5.502;2023-11-21T07:41:16;8.50;99.90
13982;DHT22;7065;50.880;5.502;2023-11-21T07:43:43;8.50;99.90
13982;DHT22;7065;50.880;5.502;2023-11-21T07:46:09;8.50;99.90
13982;DHT22;7065;50.880;5.502;2023-11-21T07:48:35;8.50;99.90
13982;DHT22;7065;50.880;5.502;2023-11-21T07:51:02;8.50;99.90
13982;DHT22;7065;50.880;5.502;2023-11-21T07:53:31;8.50;99.90
13982;DHT22;7065;50.880;5.502;2023-11-21T07:56:04;8.50;99.90
13982;DHT22;7065;50.880;5.502;2023-11-21T07:58:30;8.60;99.90
13982;DHT22;7065;50.880;5.502;2023-11-21T08:00:56;8.60;99.90
13982;DHT22;7065;50.880;5.502;2023-11-21T08:03:22;8.60;99.90
13982;DHT22;7065;50.880;5.502;2023-11-21T08:05:48;8.60;99.90
13982;DHT22;7065;50.880;5.502;2023-11-21T08:08:13;8.70;99.90
13982;DHT22;7065;50.880;5.502;2023-11-21T08:10:39;8.80;99.90
13982;DHT22;7065;50.880;5.502;2023-11-21T08:13:05;8.80;99.90
13982;DHT22;7065;50.880;5.502;2023-11-21T08:15:31;8.80;99.90
13982;DHT22;7065;50.880;5.502;2023-11-21T08:17:58;8.80;99.90
13982;DHT22;7065;50.880;5.502;2023-11-21T08:20:26;8.80;99.90
13982;DHT22;7065;50.880;5.502;2023-11-21T08:22:53;8.80;99.90
13982;DHT22;7065;50.880;5.502;2023-11-21T08:25:22;8.80;99.90
13982;DHT22;7065;50.880;5.502;2023-11-21T08:27:47;8.80;99.90
13982;DHT22;7065;50.880;5.502;2023-11-21T08:30:14;8.80;99.90
13982;DHT22;7065;50.880;5.502;2023-11-21T08:32:40;8.80;99.90
13982;DHT22;7065;50.880;5.502;2023-11-21T08:35:08;8.90;99.90
13982;DHT22;7065;50.880;5.502;2023-11-21T08:37:33;8.90;99.90
13982;DHT22;7065;50.880;5.502;2023-11-21T08:40:03;8.90;99.90
13982;DHT22;7065;50.880;5.502;2023-11-21T08:42:29;8.90;99.90
13982;DHT22;7065;50.880;5.502;2023-11-21T08:44:56;9.00;99.90
13982;DHT22;7065;50.880;5.502;2023-11-21T08:47:23;9.00;99.90
13982;DHT22;7065;50.880;5.502;2023-11-21T08:49:50;9.00;99.90
13982;DHT22;7065;50.880;5.502;2023-11-21T08:52:19;9.00;99.90
13982;DHT22;7065;50.880;5.502;2023-11-21T08:54:48;9.00;99.90
13982;DHT22;7065;50.880;5.502;2023-11-21T08:57:14;9.00;99.90
13982;DHT22;7065;50.880;5.502;2023-11-21T08:59:41;9.10;99.90
13982;DHT22;7065;50.880;5.502;2023-11-21T09:02:07;9.10;99.90
13982;DHT22;7065;50.880;5.502;2023-11-21T09:04:33;9.20;99.90
13982;DHT22;7065;50.880;5.502;2023-11-21T09:06:59;9.20;99.90
13982;DHT22;7065;50.880;5.502;2023-11-21T09:09:25;9.30;99.90
13982;DHT22;7065;50.880;5.502;2023-11-21T09:11:51;9.30;99.90
13982;DHT22;7065;50.880;5.502;2023-11-21T09:14:16;9.30;99.90
13982;DHT22;7065;50.880;5.502;2023-11-21T09:16:43;9.40;99.90
13982;DHT22;7065;50.880;5.502;2023-11-21T09:19:09;9.40;99.90
13982;DHT22;7065;50.880;5.502;2023-11-21T09:21:34;9.40;99.90
13982;DHT22;7065;50.880;5.502;2023-11-21T09:24:01;9.40;99.90
13982;DHT22;7065;50.880;5.502;2023-11-21T09:26:28;9.40;99.90
13982;DHT22;7065;50.880;5.502;2023-11-21T09:28:55;9.40;99.90
13982;DHT22;7065;50.880;5.502;2023-11-21T09:31:22;9.40;99.90
13982;DHT22;7065;50.880;5.502;2023-11-21T09:33:49;9.40;99.90
13982;DHT22;7065;50.880;5.502;2023-11-21T09:36:15;9.40;99.90
13982;DHT22;7065;50.880;5.502;2023-11-21T09:38:41;9.50;99.90
13982;DHT22;7065;50.880;5.502;2023-11-21T09:41:15;9.50;99.90
13982;DHT22;7065;50.880;5.502;2023-11-21T09:43:46;9.50;99.90
13982;DHT22;7065;50.880;5.502;2023-11-21T09:46:13;9.50;99.90
13982;DHT22;7065;50.880;5.502;2023-11-21T09:48:47;9.50;99.90
13982;DHT22;7065;50.880;5.502;2023-11-21T09:51:17;9.50;99.90
13982;DHT22;7065;50.880;5.502;2023-11-21T09:53:48;9.50;99.90
13982;DHT22;7065;50.880;5.502;2023-11-21T09:56:15;9.50;99.90
13982;DHT22;7065;50.880;5.502;2023-11-21T09:58:45;9.50;99.90
13982;DHT22;7065;50.880;5.502;2023-11-21T10:01:11;9.50;99.90
13982;DHT22;7065;50.880;5.502;2023-11-21T10:03:38;9.50;99.90
13982;DHT22;7065;50.880;5.502;2023-11-21T10:06:05;9.50;99.90
13982;DHT22;7065;50.880;5.502;2023-11-21T10:08:32;9.60;99.90
13982;DHT22;7065;50.880;5.502;2023-11-21T10:10:59;9.60;99.90
13982;DHT22;7065;50.880;5.502;2023-11-21T10:13:26;9.60;99.90
13982;DHT22;7065;50.880;5.502;2023-11-21T10:15:56;9.60;99.90
13982;DHT22;7065;50.880;5.502;2023-11-21T10:18:26;9.70;99.90
13982;DHT22;7065;50.880;5.502;2023-11-21T10:20:53;9.70;99.90
13982;DHT22;7065;50.880;5.502;2023-11-21T10:23:20;9.70;99.90
13982;DHT22;7065;50.880;5.502;2023-11-21T10:25:47;9.70;99.90
13982;DHT22;7065;50.880;5.502;2023-11-21T10:28:12;9.70;99.90
13982;DHT22;7065;50.880;5.502;2023-11-21T10:30:38;9.70;99.90
13982;DHT22;7065;50.880;5.502;2023-11-21T10:33:06;9.70;99.90
13982;DHT22;7065;50.880;5.502;2023-11-21T10:35:46;9.70;99.90
13982;DHT22;7065;50.880;5.502;2023-11-21T10:38:20;9.70;99.90
13982;DHT22;7065;50.880;5.502;2023-11-21T10:40:49;9.70;99.90
13982;DHT22;7065;50.880;5.502;2023-11-21T10:43:15;9.70;99.90
13982;DHT22;7065;50.880;5.502;2023-11-21T10:45:42;9.70;99.90
13982;DHT22;7065;50.880;5.502;2023-11-21T10:48:10;9.80;99.90
13982;DHT22;7065;50.880;5.502;2023-11-21T10:50:45;9.80;99.90
13982;DHT22;7065;50.880;5.502;2023-11-21T10:53:11;9.90;99.90
13982;DHT22;7065;50.880;5.502;2023-11-21T10:55:38;9.90;99.90
13982;DHT22;7065;50.880;5.502;2023-11-21T10:58:04;10.00;99.90
13982;DHT22;7065;50.880;5.502;2023-11-21T11:00:32;10.00;99.90
13982;DHT22;7065;50.880;5.502;2023-11-21T11:02:58;10.00;99.90
13982;DHT22;7065;50.880;5.502;2023-11-21T11:05:26;10.00;99.90
13982;DHT22;7065;50.880;5.502;2023-11-21T11:08:08;10.00;99.90
13982;DHT22;7065;50.880;5.502;2023-11-21T11:10:38;10.10;99.90
13982;DHT22;7065;50.880;5.502;2023-11-21T11:13:04;10.20;99.90
13982;DHT22;7065;50.880;5.502;2023-11-21T11:15:32;10.20;99.90
13982;DHT22;7065;50.880;5.502;2023-11-21T11:17:59;10.20;99.90
13982;DHT22;7065;50.880;5.502;2023-11-21T11:20:37;10.20;99.90
13982;DHT22;7065;50.880;5.502;2023-11-21T11:28:44;10.30;99.90
13982;DHT22;7065;50.880;5.502;2023-11-21T11:34:28;10.40;99.90
13982;DHT22;7065;50.880;5.502;2023-11-21T11:42:02;10.50;99.90
13982;DHT22;7065;50.880;5.502;2023-11-21T11:47:16;10.50;99.90
13982;DHT22;7065;50.880;5.502;2023-11-21T11:50:06;10.50;99.90
13982;DHT22;7065;50.880;5.502;2023-11-21T11:53:24;10.50;99.90
13982;DHT22;7065;50.880;5.502;2023-11-21T11:56:26;10.40;99.90
13982;DHT22;7065;50.880;5.502;2023-11-21T11:58:57;10.40;99.90
13982;DHT22;7065;50.880;5.502;2023-11-21T12:01:24;10.40;99.90
13982;DHT22;7065;50.880;5.502;2023-11-21T12:06:51;10.40;99.90
13982;DHT22;7065;50.880;5.502;2023-11-21T12:09:23;10.40;99.90
13982;DHT22;7065;50.880;5.502;2023-11-21T12:11:50;10.40;99.90
13982;DHT22;7065;50.880;5.502;2023-11-21T12:14:16;10.40;99.90
13982;DHT22;7065;50.880;5.502;2023-11-21T12:16:42;10.40;99.90
13982;DHT22;7065;50.880;5.502;2023-11-21T12:19:09;10.50;99.90
13982;DHT22;7065;50.880;5.502;2023-11-21T12:21:37;10.50;99.90
13982;DHT22;7065;50.880;5.502;2023-11-21T12:24:03;10.50;99.90
13982;DHT22;7065;50.880;5.502;2023-11-21T12:26:29;10.50;99.90
13982;DHT22;7065;50.880;5.502;2023-11-21T12:28:55;10.50;99.90
13982;DHT22;7065;50.880;5.502;2023-11-21T12:31:23;10.50;99.90
13982;DHT22;7065;50.880;5.502;2023-11-21T12:33:50;10.50;99.90
13982;DHT22;7065;50.880;5.502;2023-11-21T12:36:16;10.40;99.90
13982;DHT22;7065;50.880;5.502;2023-11-21T12:38:42;10.40;99.90
13982;DHT22;7065;50.880;5.502;2023-11-21T12:41:09;10.40;99.90
13982;DHT22;7065;50.880;5.502;2023-11-21T12:43:35;10.50;99.90
13982;DHT22;7065;50.880;5.502;2023-11-21T12:46:10;10.40;99.90
13982;DHT22;7065;50.880;5.502;2023-11-21T12:48:42;10.50;99.90
13982;DHT22;7065;50.880;5.502;2023-11-21T12:51:09;10.40;99.90
13982;DHT22;7065;50.880;5.502;2023-11-21T12:53:37;10.40;99.90
13982;DHT22;7065;50.880;5.502;2023-11-21T12:56:07;10.40;99.90
13982;DHT22;7065;50.880;5.502;2023-11-21T12:58:35;10.40;99.90
13982;DHT22;7065;50.880;5.502;2023-11-21T13:01:01;10.40;99.90
13982;DHT22;7065;50.880;5.502;2023-11-21T13:03:29;10.40;99.90
13982;DHT22;7065;50.880;5.502;2023-11-21T13:05:55;10.40;99.90
13982;DHT22;7065;50.880;5.502;2023-11-21T13:08:24;10.40;99.90
13982;DHT22;7065;50.880;5.502;2023-11-21T13:10:52;10.40;99.90
13982;DHT22;7065;50.880;5.502;2023-11-21T13:13:19;10.40;99.90
13982;DHT22;7065;50.880;5.502;2023-11-21T13:15:53;10.40;99.90
13982;DHT22;7065;50.880;5.502;2023-11-21T13:18:23;10.50;99.90
13982;DHT22;7065;50.880;5.502;2023-11-21T13:20:49;10.50;99.90
13982;DHT22;7065;50.880;5.502;2023-11-21T13:23:16;10.50;99.90
13982;DHT22;7065;50.880;5.502;2023-11-21T13:25:45;10.50;99.90
13982;DHT22;7065;50.880;5.502;2023-11-21T13:28:12;10.50;99.90
13982;DHT22;7065;50.880;5.502;2023-11-21T13:30:38;10.50;99.90
13982;DHT22;7065;50.880;5.502;2023-11-21T13:33:06;10.50;99.90
13982;DHT22;7065;50.880;5.502;2023-11-21T13:35:37;10.60;99.90
13982;DHT22;7065;50.880;5.502;2023-11-21T13:38:11;10.60;99.90
13982;DHT22;7065;50.880;5.502;2023-11-21T13:40:38;10.60;99.90
13982;DHT22;7065;50.880;5.502;2023-11-21T13:43:12;10.60;99.90
13982;DHT22;7065;50.880;5.502;2023-11-21T13:45:40;10.60;99.90
13982;DHT22;7065;50.880;5.502;2023-11-21T13:48:06;10.70;99.90
13982;DHT22;7065;50.880;5.502;2023-11-21T13:50:41;10.70;99.90
13982;DHT22;7065;50.880;5.502;2023-11-21T13:53:20;10.70;99.90
13982;DHT22;7065;50.880;5.502;2023-11-21T13:55:55;10.70;99.90
13982;DHT22;7065;50.880;5.502;2023-11-21T13:58:23;10.70;99.90
13982;DHT22;7065;50.880;5.502;2023-11-21T14:00:58;10.70;99.90
13982;DHT22;7065;50.880;5.502;2023-11-21T14:03:24;10.70;99.90
13982;DHT22;7065;50.880;5.502;2023-11-21T14:05:58;10.70;99.90
13982;DHT22;7065;50.880;5.502;2023-11-21T14:08:26;10.70;99.90
13982;DHT22;7065;50.880;5.502;2023-11-21T14:10:57;10.80;99.90
13982;DHT22;7065;50.880;5.502;2023-11-21T14:13:23;10.80;99.90
13982;DHT22;7065;50.880;5.502;2023-11-21T14:15:50;10.70;99.90
13982;DHT22;7065;50.880;5.502;2023-11-21T14:18:28;10.80;99.90
13982;DHT22;7065;50.880;5.502;2023-11-21T14:21:04;10.80;99.90
13982;DHT22;7065;50.880;5.502;2023-11-21T14:23:31;10.80;99.90
13982;DHT22;7065;50.880;5.502;2023-11-21T14:25:58;10.80;99.90
13982;DHT22;7065;50.880;5.502;2023-11-21T14:28:26;10.70;99.90
13982;DHT22;7065;50.880;5.502;2023-11-21T14:30:53;10.70;99.90
13982;DHT22;7065;50.880;5.502;2023-11-21T14:33:18;10.70;99.90
13982;DHT22;7065;50.880;5.502;2023-11-21T14:35:44;10.60;99.90
13982;DHT22;7065;50.880;5.502;2023-11-21T14:38:10;10.60;99.90
13982;DHT22;7065;50.880;5.502;2023-11-21T14:40:36;10.50;99.90
13982;DHT22;7065;50.880;5.502;2023-11-21T14:43:03;10.50;99.90
13982;DHT22;7065;50.880;5.502;2023-11-21T14:45:32;10.50;99.90
13982;DHT22;7065;50.880;5.502;2023-11-21T14:47:58;10.40;99.90
13982;DHT22;7065;50.880;5.502;2023-11-21T14:50:33;10.40;99.90
13982;DHT22;7065;50.880;5.502;2023-11-21T14:53:10;10.40;99.90
13982;DHT22;7065;50.880;5.502;2023-11-21T14:55:38;10.40;99.90
13982;DHT22;7065;50.880;5.502;2023-11-21T14:58:22;10.40;99.90
13982;DHT22;7065;50.880;5.502;2023-11-21T15:00:55;10.40;99.90
13982;DHT22;7065;50.880;5.502;2023-11-21T15:03:27;10.30;99.90
13982;DHT22;7065;50.880;5.502;2023-11-21T15:05:59;10.30;99.90
13982;DHT22;7065;50.880;5.502;2023-11-21T15:08:37;10.30;99.90
13982;DHT22;7065;50.880;5.502;2023-11-21T15:11:03;10.30;99.90
13982;DHT22;7065;50.880;5.502;2023-11-21T15:13:32;10.30;99.90
13982;DHT22;7065;50.880;5.502;2023-11-21T15:15:59;10.30;99.90
13982;DHT22;7065;50.880;5.502;2023-11-21T15:18:33;10.30;99.90
13982;DHT22;7065;50.880;5.502;2023-11-21T15:20:59;10.30;99.90
13982;DHT22;7065;50.880;5.502;2023-11-21T15:23:25;10.30;99.90
13982;DHT22;7065;50.880;5.502;2023-11-21T15:25:53;10.30;99.90
13982;DHT22;7065;50.880;5.502;2023-11-21T15:28:19;10.30;99.90
13982;DHT22;7065;50.880;5.502;2023-11-21T15:30:45;10.30;99.90
13982;DHT22;7065;50.880;5.502;2023-11-21T15:33:13;10.30;99.90
13982;DHT22;7065;50.880;5.502;2023-11-21T15:35:39;10.30;99.90
13982;DHT22;7065;50.880;5.502;2023-11-21T15:38:06;10.20;99.90
13982;DHT22;7065;50.880;5.502;2023-11-21T15:40:34;10.20;99.90
13982;DHT22;7065;50.880;5.502;2023-11-21T15:42:59;10.20;99.90
13982;DHT22;7065;50.880;5.502;2023-11-21T15:45:25;10.20;99.90
13982;DHT22;7065;50.880;5.502;2023-11-21T15:47:51;10.20;99.90
13982;DHT22;7065;50.880;5.502;2023-11-21T15:50:19;10.20;99.90
13982;DHT22;7065;50.880;5.502;2023-11-21T15:52:44;10.20;99.90
13982;DHT22;7065;50.880;5.502;2023-11-21T15:55:11;10.10;99.90
13982;DHT22;7065;50.880;5.502;2023-11-21T15:57:37;10.10;99.90
13982;DHT22;7065;50.880;5.502;2023-11-21T16:00:03;10.10;99.90
13982;DHT22;7065;50.880;5.502;2023-11-21T16:02:36;10.10;99.90
13982;DHT22;7065;50.880;5.502;2023-11-21T16:05:04;10.00;99.90
13982;DHT22;7065;50.880;5.502;2023-11-21T16:07:30;10.00;99.90
13982;DHT22;7065;50.880;5.502;2023-11-21T16:09:57;10.00;99.90
13982;DHT22;7065;50.880;5.502;2023-11-21T16:12:23;10.00;99.90
13982;DHT22;7065;50.880;5.502;2023-11-21T16:14:48;9.90;99.90
13982;DHT22;7065;50.880;5.502;2023-11-21T16:17:15;9.90;99.90
13982;DHT22;7065;50.880;5.502;2023-11-21T16:19:47;9.90;99.90